createdAt,value
2019-01-12T00:00:50.088Z,28.1
2019-01-12T00:02:50.130Z,28.7
2019-01-12T00:04:49.453Z,28.1
2019-01-12T00:06:49.692Z,27.6
2019-01-12T00:08:49.726Z,27.1
2019-01-12T00:10:49.718Z,27.1
2019-01-12T00:12:49.716Z,27.9
2019-01-12T00:14:49.746Z,28.5
2019-01-12T00:16:49.934Z,27.6
2019-01-12T00:18:50.000Z,29.5
2019-01-12T00:20:50.102Z,29.5
2019-01-12T00:22:50.087Z,29.5
2019-01-12T00:24:50.028Z,28.0
2019-01-12T00:26:50.283Z,28.0
2019-01-12T00:28:50.249Z,26.8
2019-01-12T00:30:50.295Z,26.8
2019-01-12T00:32:50.248Z,29.1
2019-01-12T00:34:49.633Z,29.0
2019-01-12T00:36:49.929Z,28.9
2019-01-12T00:38:49.925Z,28.9
2019-01-12T00:40:49.957Z,27.0
2019-01-12T00:42:49.967Z,27.7
2019-01-12T00:44:50.012Z,28.1
2019-01-12T00:46:50.274Z,28.1
2019-01-12T00:48:50.246Z,29.2
2019-01-12T00:50:50.285Z,29.3
2019-01-12T00:52:50.319Z,28.4
2019-01-12T00:54:50.316Z,29.9
2019-01-12T00:56:49.598Z,29.9
2019-01-12T00:58:49.628Z,28.7
2019-01-12T01:00:49.721Z,31.4
2019-01-12T01:02:49.659Z,30.7
2019-01-12T01:04:49.914Z,32.2
2019-01-12T01:06:50.073Z,32.2
2019-01-12T01:08:50.077Z,32.4
2019-01-12T01:10:50.088Z,32.6
2019-01-12T01:12:50.099Z,32.9
2019-01-12T01:14:50.044Z,32.9
2019-01-12T01:16:50.260Z,32.6
2019-01-12T01:18:50.252Z,30.7
2019-01-12T01:20:50.251Z,30.1
2019-01-12T01:22:50.325Z,31.7
2019-01-12T01:24:50.261Z,31.2
2019-01-12T01:26:49.499Z,31.2
2019-01-12T01:28:49.466Z,32.7
2019-01-12T01:30:49.575Z,31.7
2019-01-12T01:32:49.542Z,30.4
2019-01-12T01:34:50.000Z,29.8
2019-01-12T01:36:50.194Z,29.8
2019-01-12T01:38:50.315Z,30.7
2019-01-12T01:40:50.293Z,30.6
2019-01-12T01:42:50.292Z,29.2
2019-01-12T01:44:50.201Z,29.4
2019-01-12T01:46:50.370Z,29.4
2019-01-12T01:48:50.311Z,29.3
2019-01-12T01:50:50.361Z,30.5
2019-01-12T01:52:50.331Z,30.5
2019-01-12T01:54:52.852Z,31.3
2019-01-12T01:56:49.584Z,31.3
2019-01-12T01:58:49.672Z,30.8
2019-01-12T02:00:49.728Z,29.7
2019-01-12T02:02:49.769Z,29.7
2019-01-12T02:04:50.087Z,32.4
2019-01-12T02:06:50.239Z,31.8
2019-01-12T02:08:50.363Z,30.6
2019-01-12T02:10:50.327Z,31.5
2019-01-12T02:12:50.427Z,30.9
2019-01-12T02:14:50.425Z,30.9
2019-01-12T02:16:50.021Z,30.3
2019-01-12T02:18:50.088Z,31.2
2019-01-12T02:20:50.131Z,29.7
2019-01-12T02:22:50.143Z,30.9
2019-01-12T02:24:50.180Z,30.9
2019-01-12T02:26:50.429Z,30.5
2019-01-12T02:28:49.758Z,30.5
2019-01-12T02:30:49.790Z,31.0
2019-01-12T02:32:49.893Z,31.0
2019-01-12T02:34:50.104Z,32.0
2019-01-12T02:36:50.254Z,29.2
2019-01-12T02:38:50.296Z,32.1
2019-01-12T02:40:50.277Z,30.9
2019-01-12T02:42:50.302Z,30.9
2019-01-12T02:44:50.349Z,32.2
2019-01-12T02:46:49.595Z,30.7
2019-01-12T02:48:49.567Z,31.9
2019-01-12T02:50:49.622Z,31.8
2019-01-12T02:52:49.765Z,31.6
2019-01-12T02:54:49.775Z,31.6
2019-01-12T02:56:50.030Z,33.8
2019-01-12T02:58:50.111Z,32.4
2019-01-12T03:00:50.156Z,32.7
2019-01-12T03:02:50.281Z,32.7
2019-01-12T03:04:49.463Z,33.0
2019-01-12T03:06:49.718Z,32.6
2019-01-12T03:08:50.325Z,32.4
2019-01-12T03:10:50.267Z,32.4
2019-01-12T03:12:50.351Z,36.3
2019-01-12T03:14:50.417Z,35.4
2019-01-12T03:16:49.613Z,36.6
2019-01-12T03:18:49.661Z,36.3
2019-01-12T03:20:49.660Z,36.1
2019-01-12T03:22:49.682Z,36.1
2019-01-12T03:24:49.755Z,34.5
2019-01-12T03:26:49.999Z,31.5
2019-01-12T03:28:50.049Z,31.5
2019-01-12T03:30:50.065Z,31.5
2019-01-12T03:32:50.081Z,30.4
2019-01-12T03:34:49.691Z,31.5
2019-01-12T03:36:49.924Z,29.6
2019-01-12T03:38:50.046Z,28.7
2019-01-12T03:40:50.123Z,28.7
2019-01-12T03:42:50.147Z,27.0
2019-01-12T03:44:50.163Z,26.6
2019-01-12T03:46:50.273Z,26.6
2019-01-12T03:48:50.325Z,25.6
2019-01-12T03:50:50.345Z,25.6
2019-01-12T03:52:50.394Z,26.0
2019-01-12T03:54:50.404Z,24.1
2019-01-12T03:56:49.612Z,24.1
2019-01-12T03:58:49.651Z,24.9
2019-01-12T04:00:49.665Z,24.9
2019-01-12T04:02:49.646Z,24.7
2019-01-12T04:04:49.933Z,23.1
2019-01-12T04:06:50.254Z,23.1
2019-01-12T04:08:50.294Z,24.1
2019-01-12T04:10:50.291Z,24.1
2019-01-12T04:12:50.320Z,23.8
2019-01-12T04:14:50.273Z,24.7
2019-01-12T04:16:49.456Z,23.4
2019-01-12T04:18:49.555Z,23.6
2019-01-12T04:20:49.566Z,23.6
2019-01-12T04:22:49.645Z,24.7
2019-01-12T04:24:49.711Z,24.8
2019-01-12T04:26:49.908Z,26.9
2019-01-12T04:28:49.892Z,26.9
2019-01-12T04:30:49.883Z,26.4
2019-01-12T04:32:49.924Z,24.8
2019-01-12T04:34:50.210Z,26.1
2019-01-12T04:36:49.546Z,26.7
2019-01-12T04:38:49.501Z,26.7
2019-01-12T04:40:49.654Z,28.2
2019-01-12T04:42:49.771Z,29.3
2019-01-12T04:44:49.880Z,28.2
2019-01-12T04:46:50.035Z,28.8
2019-01-12T04:48:50.065Z,28.8
2019-01-12T04:50:50.087Z,28.1
2019-01-12T04:52:50.125Z,29.3
2019-01-12T04:54:50.108Z,28.2
2019-01-12T04:56:50.290Z,28.2
2019-01-12T04:58:50.412Z,26.9
2019-01-12T05:00:49.463Z,26.6
2019-01-12T05:02:49.557Z,26.5
2019-01-12T05:04:49.891Z,26.5
2019-01-12T05:06:50.198Z,24.9
2019-01-12T05:08:50.257Z,24.9
2019-01-12T05:10:50.261Z,23.9
2019-01-12T05:12:50.235Z,22.8
2019-01-12T05:14:50.235Z,23.9
2019-01-12T05:16:49.467Z,24.0
2019-01-12T05:18:49.451Z,24.0
2019-01-12T05:20:49.474Z,23.9
2019-01-12T05:22:49.449Z,23.7
2019-01-12T05:24:49.508Z,23.0
2019-01-12T05:26:50.235Z,23.0
2019-01-12T05:28:50.217Z,24.7
2019-01-12T05:30:50.137Z,22.1
2019-01-12T05:32:50.255Z,22.8
2019-01-12T05:34:49.549Z,22.1
2019-01-12T05:36:49.917Z,22.1
2019-01-12T05:38:49.913Z,21.8
2019-01-12T05:40:49.913Z,21.8
2019-01-12T05:42:49.965Z,21.8
2019-01-12T05:44:50.008Z,20.6
2019-01-12T05:46:50.222Z,20.6
2019-01-12T05:48:50.187Z,19.1
2019-01-12T05:50:50.218Z,19.6
2019-01-12T05:52:50.257Z,19.6
2019-01-12T05:54:50.271Z,18.4
2019-01-12T05:56:49.721Z,18.4
2019-01-12T05:58:49.716Z,18.1
2019-01-12T06:00:49.713Z,18.1
2019-01-12T06:02:49.683Z,17.8
2019-01-12T06:04:50.065Z,18.7
2019-01-12T06:06:50.346Z,18.7
2019-01-12T06:08:49.450Z,18.5
2019-01-12T06:10:49.479Z,18.1
2019-01-12T06:12:49.530Z,19.0
2019-01-12T06:14:49.568Z,18.9
2019-01-12T06:16:49.809Z,18.9
2019-01-12T06:18:49.820Z,18.8
2019-01-12T06:20:49.810Z,19.7
2019-01-12T06:22:49.865Z,19.6
2019-01-12T06:24:49.913Z,19.7
2019-01-12T06:26:50.064Z,19.7
2019-01-12T06:28:50.058Z,19.8
2019-01-12T06:30:50.022Z,19.7
2019-01-12T06:32:50.043Z,19.7
2019-01-12T06:34:50.249Z,20.3
2019-01-12T06:36:50.026Z,20.5
2019-01-12T06:38:50.089Z,20.7
2019-01-12T06:40:50.121Z,19.5
2019-01-12T06:42:50.110Z,19.5
2019-01-12T06:44:50.154Z,20.4
2019-01-12T06:46:50.339Z,20.1
2019-01-12T06:48:50.430Z,19.2
2019-01-12T06:50:50.405Z,19.2
2019-01-12T06:52:49.420Z,19.7
2019-01-12T06:54:49.534Z,19.0
2019-01-12T06:56:49.791Z,19.3
2019-01-12T06:58:49.790Z,19.7
2019-01-12T07:00:49.830Z,19.0
2019-01-12T07:02:49.875Z,19.0
2019-01-12T07:04:50.048Z,18.6
2019-01-12T07:06:50.393Z,19.0
2019-01-12T07:08:50.427Z,19.3
2019-01-12T07:10:49.555Z,19.3
2019-01-12T07:12:49.554Z,19.3
2019-01-12T07:14:49.602Z,19.6
2019-01-12T07:16:49.837Z,19.5
2019-01-12T07:18:49.862Z,19.5
2019-01-12T07:20:49.804Z,19.7
2019-01-12T07:22:49.795Z,19.7
2019-01-12T07:24:49.812Z,20.2
2019-01-12T07:26:49.963Z,20.0
2019-01-12T07:28:49.934Z,18.5
2019-01-12T07:30:49.966Z,19.1
2019-01-12T07:32:50.000Z,19.1
2019-01-12T07:34:50.372Z,19.8
2019-01-12T07:36:49.606Z,19.3
2019-01-12T07:38:49.622Z,19.3
2019-01-12T07:40:49.717Z,20.5
2019-01-12T07:42:49.680Z,20.4
2019-01-12T07:44:49.648Z,20.5
2019-01-12T07:46:49.939Z,19.3
2019-01-12T07:48:50.027Z,21.4
2019-01-12T07:50:50.078Z,21.4
2019-01-12T07:52:50.085Z,21.9
2019-01-12T07:54:50.055Z,20.8
2019-01-12T07:56:50.232Z,22.5
2019-01-12T07:58:50.216Z,22.3
2019-01-12T08:00:50.254Z,22.3
2019-01-12T08:02:50.187Z,22.3
2019-01-12T08:04:49.710Z,21.0
2019-01-12T08:06:49.909Z,22.0
2019-01-12T08:08:49.872Z,22.0
2019-01-12T08:10:49.857Z,20.9
2019-01-12T08:12:49.910Z,20.8
2019-01-12T08:14:49.949Z,20.7
2019-01-12T08:16:50.321Z,21.6
2019-01-12T08:18:50.280Z,21.3
2019-01-12T08:20:50.284Z,21.3
2019-01-12T08:22:50.237Z,20.8
2019-01-12T08:24:50.252Z,19.5
2019-01-12T08:26:50.385Z,19.6
2019-01-12T08:28:50.315Z,20.3
2019-01-12T08:30:50.357Z,20.3
2019-01-12T08:32:50.359Z,20.0
2019-01-12T08:34:49.850Z,20.5
2019-01-12T08:36:50.009Z,20.1
2019-01-12T08:38:49.920Z,20.1
2019-01-12T08:40:49.903Z,20.6
2019-01-12T08:42:49.919Z,20.1
2019-01-12T08:44:49.913Z,21.5
2019-01-12T08:46:50.104Z,18.7
2019-01-12T08:48:50.168Z,18.7
2019-01-12T08:50:50.222Z,20.4
2019-01-12T08:52:50.231Z,20.4
2019-01-12T08:54:50.253Z,20.4
2019-01-12T08:56:49.488Z,19.1
2019-01-12T08:58:49.582Z,19.1
2019-01-12T09:00:49.566Z,19.6
2019-01-12T09:02:49.693Z,21.4
2019-01-12T09:04:49.989Z,19.5
2019-01-12T09:06:50.176Z,19.0
2019-01-12T09:08:50.149Z,19.0
2019-01-12T09:10:50.219Z,18.9
2019-01-12T09:12:50.210Z,19.7
2019-01-12T09:14:50.182Z,18.1
2019-01-12T09:16:49.507Z,18.7
2019-01-12T09:18:49.573Z,18.7
2019-01-12T09:20:49.601Z,18.0
2019-01-12T09:22:49.670Z,18.7
2019-01-12T09:24:49.712Z,17.9
2019-01-12T09:26:49.890Z,17.9
2019-01-12T09:28:49.855Z,18.0
2019-01-12T09:30:49.887Z,16.9
2019-01-12T09:32:49.965Z,18.2
2019-01-12T09:34:50.206Z,17.1
2019-01-12T09:36:50.431Z,17.1
2019-01-12T09:38:49.483Z,17.6
2019-01-12T09:40:49.548Z,16.5
2019-01-12T09:42:49.532Z,16.5
2019-01-12T09:44:49.534Z,15.6
2019-01-12T09:46:49.750Z,15.6
2019-01-12T09:48:49.725Z,14.5
2019-01-12T09:50:49.666Z,14.5
2019-01-12T09:52:49.683Z,14.6
2019-01-12T09:54:49.696Z,14.6
2019-01-12T09:56:51.808Z,14.6
2019-01-12T09:58:50.045Z,14.5
2019-01-12T10:00:50.040Z,13.8
2019-01-12T10:02:50.153Z,14.5
2019-01-12T10:04:50.289Z,14.5
2019-01-12T10:06:49.567Z,15.4
2019-01-12T10:08:49.637Z,16.2
2019-01-12T10:10:49.648Z,15.2
2019-01-12T10:12:49.684Z,15.2
2019-01-12T10:14:49.689Z,16.3
2019-01-12T10:16:49.907Z,16.3
2019-01-12T10:18:49.841Z,15.9
2019-01-12T10:20:49.807Z,16.6
2019-01-12T10:22:49.824Z,17.7
2019-01-12T10:24:49.820Z,17.7
2019-01-12T10:26:50.015Z,15.6
2019-01-12T10:28:50.082Z,16.2
2019-01-12T10:30:50.100Z,16.2
2019-01-12T10:32:50.073Z,16.1
2019-01-12T10:34:50.295Z,16.1
2019-01-12T10:36:49.493Z,16.1
2019-01-12T10:38:49.457Z,16.4
2019-01-12T10:40:49.534Z,16.2
2019-01-12T10:42:49.563Z,16.2
2019-01-12T10:44:49.611Z,16.6
2019-01-12T10:46:50.016Z,15.7
2019-01-12T10:48:50.030Z,17.5
2019-01-12T10:50:49.965Z,17.5
2019-01-12T10:52:49.972Z,16.3
2019-01-12T10:54:49.956Z,16.3
2019-01-12T10:56:50.199Z,16.0
2019-01-12T10:58:50.200Z,15.3
2019-01-12T11:00:50.248Z,16.4
2019-01-12T11:02:50.303Z,15.5
2019-01-12T11:04:49.669Z,15.5
2019-01-12T11:06:49.702Z,14.8
2019-01-12T11:08:49.667Z,14.8
2019-01-12T11:10:49.778Z,15.8
2019-01-12T11:12:49.765Z,15.8
2019-01-12T11:14:50.020Z,15.5
2019-01-12T11:16:50.245Z,15.5
2019-01-12T11:18:50.208Z,15.9
2019-01-12T11:20:50.196Z,15.9
2019-01-12T11:22:50.161Z,16.0
2019-01-12T11:24:50.144Z,15.0
2019-01-12T11:26:50.366Z,15.2
2019-01-12T11:28:50.339Z,15.2
2019-01-12T11:30:50.341Z,15.2
2019-01-12T11:32:50.406Z,14.5
2019-01-12T11:34:49.742Z,14.9
2019-01-12T11:36:49.942Z,14.8
2019-01-12T11:38:50.031Z,15.1
2019-01-12T11:40:50.061Z,16.0
2019-01-12T11:42:50.188Z,16.0
2019-01-12T11:44:50.177Z,15.6
2019-01-12T11:46:50.376Z,13.6
2019-01-12T11:48:50.255Z,14.5
2019-01-12T11:50:50.297Z,14.5
2019-01-12T11:52:50.288Z,14.5
2019-01-12T11:54:50.229Z,15.3
2019-01-12T11:56:50.410Z,15.0
2019-01-12T11:58:50.427Z,15.4
2019-01-12T12:00:49.455Z,14.8
2019-01-12T12:02:49.510Z,14.8
2019-01-12T12:04:49.915Z,14.6
2019-01-12T12:06:50.134Z,14.5
2019-01-12T12:08:50.102Z,14.0
2019-01-12T12:10:50.061Z,14.0
2019-01-12T12:12:49.996Z,14.7
2019-01-12T12:14:49.974Z,16.5
2019-01-12T12:16:50.219Z,15.8
2019-01-12T12:18:50.307Z,15.9
2019-01-12T12:20:50.331Z,15.9
2019-01-12T12:22:50.279Z,15.5
2019-01-12T12:24:50.317Z,16.4
2019-01-12T12:26:49.492Z,15.8
2019-01-12T12:28:49.613Z,15.8
2019-01-12T12:30:49.614Z,15.8
2019-01-12T12:32:49.637Z,15.7
2019-01-12T12:34:49.980Z,16.8
2019-01-12T12:36:50.147Z,15.8
2019-01-12T12:38:50.153Z,15.7
2019-01-12T12:40:50.194Z,15.7
2019-01-12T12:42:50.231Z,16.4
2019-01-12T12:44:50.146Z,15.9
2019-01-12T12:46:50.373Z,15.9
2019-01-12T12:48:50.316Z,15.6
2019-01-12T12:50:50.315Z,15.9
2019-01-12T12:52:50.244Z,15.6
2019-01-12T12:54:50.243Z,15.4
2019-01-12T12:56:50.409Z,16.7
2019-01-12T12:58:49.481Z,16.7
2019-01-12T13:00:49.455Z,16.3
2019-01-12T13:02:49.459Z,18.1
2019-01-12T13:04:49.932Z,17.3
2019-01-12T13:06:50.114Z,17.3
2019-01-12T13:08:50.141Z,16.7
2019-01-12T13:10:50.195Z,16.9
2019-01-12T13:12:50.198Z,16.9
2019-01-12T13:14:50.182Z,17.3
2019-01-12T13:16:50.325Z,17.3
2019-01-12T13:18:50.325Z,17.8
2019-01-12T13:20:50.300Z,16.6
2019-01-12T13:22:50.423Z,16.2
2019-01-12T13:24:50.418Z,16.7
2019-01-12T13:26:49.642Z,16.7
2019-01-12T13:28:49.758Z,16.7
2019-01-12T13:30:49.695Z,16.3
2019-01-12T13:32:49.609Z,16.9
2019-01-12T13:34:50.119Z,16.3
2019-01-12T13:36:50.301Z,16.0
2019-01-12T13:38:50.294Z,16.0
2019-01-12T13:40:50.351Z,18.0
2019-01-12T13:42:49.440Z,16.7
2019-01-12T13:44:49.556Z,17.2
2019-01-12T13:46:49.737Z,17.2
2019-01-12T13:48:49.715Z,17.4
2019-01-12T13:50:49.709Z,17.6
2019-01-12T13:52:49.727Z,17.0
2019-01-12T13:54:49.694Z,16.9
2019-01-12T13:56:49.947Z,16.9
2019-01-12T13:58:49.968Z,17.8
2019-01-12T14:00:49.996Z,17.9
2019-01-12T14:02:49.968Z,17.1
2019-01-12T14:04:50.231Z,16.8
2019-01-12T14:06:50.386Z,16.8
2019-01-12T14:08:49.562Z,17.4
2019-01-12T14:10:49.602Z,17.7
2019-01-12T14:12:49.618Z,17.7
2019-01-12T14:14:49.712Z,16.5
2019-01-12T14:16:49.892Z,16.5
2019-01-12T14:18:49.939Z,16.3
2019-01-12T14:20:49.943Z,17.8
2019-01-12T14:22:49.962Z,16.5
2019-01-12T14:24:49.957Z,16.5
2019-01-12T14:26:50.164Z,17.4
2019-01-12T14:28:50.219Z,16.4
2019-01-12T14:30:50.231Z,16.2
2019-01-12T14:32:50.366Z,15.6
2019-01-12T14:34:49.757Z,15.6
2019-01-12T14:36:50.042Z,16.3
2019-01-12T14:38:50.052Z,15.4
2019-01-12T14:40:50.088Z,15.8
2019-01-12T14:42:50.088Z,14.9
2019-01-12T14:44:50.120Z,14.9
2019-01-12T14:46:50.262Z,14.7
2019-01-12T14:48:50.301Z,15.1
2019-01-12T14:50:50.251Z,15.7
2019-01-12T14:52:50.227Z,15.7
2019-01-12T14:54:50.215Z,15.1
2019-01-12T14:56:49.554Z,14.9
2019-01-12T14:58:49.568Z,14.0
2019-01-12T15:00:49.675Z,14.0
2019-01-12T15:02:49.688Z,14.7
2019-01-12T15:04:50.222Z,14.7
2019-01-12T15:06:49.560Z,15.1
2019-01-12T15:08:49.680Z,14.7
2019-01-12T15:10:49.706Z,14.2
2019-01-12T15:12:49.747Z,14.2
2019-01-12T15:14:49.715Z,14.1
2019-01-12T15:16:49.972Z,14.4
2019-01-12T15:18:49.976Z,14.5
2019-01-12T15:20:49.989Z,14.5
2019-01-12T15:22:50.009Z,13.9
2019-01-12T15:24:50.039Z,13.9
2019-01-12T15:26:50.245Z,14.4
2019-01-12T15:28:50.240Z,14.0
2019-01-12T15:30:50.277Z,14.0
2019-01-12T15:32:50.373Z,14.0
2019-01-12T15:34:49.897Z,14.2
2019-01-12T15:36:50.074Z,13.8
2019-01-12T15:38:50.159Z,14.0
2019-01-12T15:40:50.094Z,13.1
2019-01-12T15:42:50.107Z,13.1
2019-01-12T15:44:50.078Z,13.4
2019-01-12T15:46:50.278Z,13.2
2019-01-12T15:48:50.234Z,13.3
2019-01-12T15:50:50.240Z,13.5
2019-01-12T15:52:50.309Z,13.5
2019-01-12T15:54:51.000Z,13.4
2019-01-12T15:56:49.446Z,13.4
2019-01-12T15:58:50.386Z,13.1
2019-01-12T16:00:50.427Z,12.7
2019-01-12T16:02:50.409Z,12.7
2019-01-12T16:04:49.796Z,13.3
2019-01-12T16:06:50.065Z,18.6
2019-01-12T16:08:50.166Z,13.0
2019-01-12T16:10:50.152Z,13.0
2019-01-12T16:12:50.185Z,13.2
2019-01-12T16:14:50.162Z,13.9
2019-01-12T16:16:50.424Z,14.0
2019-01-12T16:18:50.439Z,14.2
2019-01-12T16:20:49.552Z,14.2
2019-01-12T16:22:49.494Z,15.5
2019-01-12T16:24:49.571Z,14.1
2019-01-12T16:26:49.765Z,14.1
2019-01-12T16:28:49.812Z,15.2
2019-01-12T16:30:50.057Z,15.2
2019-01-12T16:32:50.125Z,15.0
2019-01-12T16:34:49.442Z,15.6
2019-01-12T16:36:51.077Z,14.4
2019-01-12T16:38:50.206Z,15.0
2019-01-12T16:40:50.129Z,15.0
2019-01-12T16:42:50.223Z,15.2
2019-01-12T16:44:50.217Z,16.2
2019-01-12T16:46:50.401Z,16.2
2019-01-12T16:48:49.459Z,16.5
2019-01-12T16:50:49.441Z,16.8
2019-01-12T16:52:49.548Z,16.0
2019-01-12T16:54:49.554Z,17.2
2019-01-12T16:56:49.890Z,17.2
2019-01-12T16:58:49.904Z,16.3
2019-01-12T17:00:49.884Z,17.8
2019-01-12T17:02:49.824Z,18.6
2019-01-12T17:04:49.984Z,18.6
2019-01-12T17:06:50.145Z,17.7
2019-01-12T17:08:50.165Z,18.1
2019-01-12T17:10:50.120Z,18.0
2019-01-12T17:12:50.187Z,18.3
2019-01-12T17:14:50.191Z,18.3
2019-01-12T17:16:50.416Z,19.7
2019-01-12T17:18:50.442Z,19.7
2019-01-12T17:20:50.378Z,17.3
2019-01-12T17:22:50.420Z,17.6
2019-01-12T17:24:50.412Z,18.2
2019-01-12T17:26:49.623Z,18.3
2019-01-12T17:28:49.708Z,18.3
2019-01-12T17:30:49.727Z,17.0
2019-01-12T17:32:49.667Z,16.5
2019-01-12T17:34:49.874Z,15.9
2019-01-12T17:36:50.162Z,14.6
2019-01-12T17:38:50.151Z,14.6
2019-01-12T17:40:50.102Z,14.5
2019-01-12T17:42:50.016Z,14.5
2019-01-12T17:44:50.018Z,14.4
2019-01-12T17:46:50.205Z,14.4
2019-01-12T17:48:50.193Z,13.9
2019-01-12T17:50:50.132Z,13.7
2019-01-12T17:52:50.248Z,13.7
2019-01-12T17:54:50.153Z,12.1
2019-01-12T17:56:50.491Z,12.1
2019-01-12T17:58:50.430Z,11.2
2019-01-12T18:00:49.466Z,12.5
2019-01-12T18:02:49.491Z,12.6
2019-01-12T18:04:49.921Z,11.3
2019-01-12T18:06:50.166Z,11.3
2019-01-12T18:08:50.145Z,10.9
2019-01-12T18:10:50.117Z,9.2
2019-01-12T18:12:50.147Z,9.9
2019-01-12T18:14:50.180Z,9.9
2019-01-12T18:16:50.300Z,9.4
2019-01-12T18:18:50.243Z,8.8
2019-01-12T18:20:50.202Z,8.1
2019-01-12T18:22:50.269Z,8.1
2019-01-12T18:24:50.215Z,5.9
2019-01-12T18:26:49.554Z,5.9
2019-01-12T18:28:51.536Z,5.4
2019-01-12T18:30:49.666Z,5.5
2019-01-12T18:32:49.717Z,5.4
2019-01-12T18:34:50.023Z,5.4
2019-01-12T18:36:50.200Z,5.4
2019-01-12T18:38:50.291Z,4.9
2019-01-12T18:40:50.221Z,4.9
2019-01-12T18:42:50.156Z,4.2
2019-01-12T18:44:50.119Z,4.2
2019-01-12T18:46:49.481Z,4.4
2019-01-12T18:48:49.446Z,4.6
2019-01-12T18:50:50.442Z,4.6
2019-01-12T18:52:49.537Z,6.1
2019-01-12T18:54:49.520Z,6.1
2019-01-12T18:56:49.790Z,4.3
2019-01-12T18:58:49.706Z,4.4
2019-01-12T19:00:49.703Z,4.3
2019-01-12T19:02:49.735Z,4.3
2019-01-12T19:04:49.963Z,4.3
2019-01-12T19:06:50.228Z,4.0
2019-01-12T19:08:50.154Z,3.9
2019-01-12T19:10:50.170Z,3.6
2019-01-12T19:12:50.154Z,3.6
2019-01-12T19:14:50.164Z,4.0
2019-01-12T19:16:50.289Z,3.7
2019-01-12T19:18:50.409Z,3.7
2019-01-12T19:20:50.398Z,3.7
2019-01-12T19:22:50.409Z,3.7
2019-01-12T19:24:50.469Z,4.1
2019-01-12T19:26:49.691Z,3.7
2019-01-12T19:28:49.725Z,3.4
2019-01-12T19:30:49.712Z,3.2
2019-01-12T19:32:49.708Z,3.2
2019-01-12T19:34:50.112Z,3.3
2019-01-12T19:36:49.500Z,3.4
2019-01-12T19:38:49.560Z,3.4
2019-01-12T19:40:49.544Z,3.4
2019-01-12T19:42:49.542Z,3.1
2019-01-12T19:44:49.457Z,2.8
2019-01-12T19:46:49.665Z,3.1
2019-01-12T19:48:49.645Z,3.1
2019-01-12T19:50:49.689Z,3.1
2019-01-12T19:52:49.682Z,3.1
2019-01-12T19:54:49.664Z,3.2
2019-01-12T19:56:49.849Z,3.4
2019-01-12T19:58:49.776Z,3.3
2019-01-12T20:00:49.734Z,3.0
2019-01-12T20:02:49.707Z,3.0
2019-01-12T20:04:49.996Z,3.0
2019-01-12T20:06:50.149Z,2.9
2019-01-12T20:08:50.186Z,2.9
2019-01-12T20:10:50.217Z,2.9
2019-01-12T20:12:50.176Z,2.9
2019-01-12T20:14:50.208Z,2.9
2019-01-12T20:16:49.442Z,2.9
2019-01-12T20:18:49.476Z,3.2
2019-01-12T20:20:49.637Z,3.2
2019-01-12T20:22:50.276Z,2.8
2019-01-12T20:24:50.400Z,3.0
2019-01-12T20:26:49.637Z,3.0
2019-01-12T20:28:49.738Z,2.9
2019-01-12T20:30:49.728Z,2.9
2019-01-12T20:32:49.673Z,2.7
2019-01-12T20:34:50.240Z,2.9
2019-01-12T20:36:49.582Z,3.0
2019-01-12T20:38:49.568Z,3.0
2019-01-12T20:40:49.598Z,2.9
2019-01-12T20:42:49.562Z,3.0
2019-01-12T20:44:49.608Z,2.5
2019-01-12T20:46:49.782Z,2.5
2019-01-12T20:48:49.810Z,2.8
2019-01-12T20:50:50.181Z,2.7
2019-01-12T20:52:50.275Z,3.1
2019-01-12T20:54:50.065Z,2.5
2019-01-12T20:56:50.357Z,2.5
2019-01-12T20:58:49.602Z,3.1
2019-01-12T21:00:49.676Z,3.3
2019-01-12T21:02:49.744Z,3.1
2019-01-12T21:04:49.965Z,3.1
2019-01-12T21:06:50.141Z,3.1
2019-01-12T21:08:50.202Z,3.1
2019-01-12T21:10:50.160Z,2.5
2019-01-12T21:12:50.133Z,3.2
2019-01-12T21:14:49.894Z,3.2
2019-01-12T21:16:50.099Z,3.0
2019-01-12T21:18:50.053Z,3.0
2019-01-12T21:20:50.021Z,2.7
2019-01-12T21:22:50.037Z,3.2
2019-01-12T21:24:49.947Z,3.0
2019-01-12T21:26:50.128Z,2.9
2019-01-12T21:28:50.187Z,2.9
2019-01-12T21:30:50.355Z,2.8
2019-01-12T21:32:50.374Z,2.9
2019-01-12T21:34:49.617Z,3.0
2019-01-12T21:36:49.909Z,3.0
2019-01-12T21:38:49.931Z,3.0
2019-01-12T21:40:49.886Z,2.8
2019-01-12T21:42:49.830Z,2.8
2019-01-12T21:44:49.809Z,2.8
2019-01-12T21:46:49.987Z,2.8
2019-01-12T21:48:50.552Z,2.9
2019-01-12T21:50:49.675Z,2.9
2019-01-12T21:52:49.685Z,3.1
2019-01-12T21:54:49.650Z,3.1
2019-01-12T21:56:49.908Z,2.5
2019-01-12T21:58:49.983Z,3.4
2019-01-12T22:00:49.990Z,2.6
2019-01-12T22:02:50.039Z,2.6
2019-01-12T22:04:50.304Z,3.1
2019-01-12T22:06:49.473Z,3.1
2019-01-12T22:08:49.621Z,2.6
2019-01-12T22:10:49.626Z,2.8
2019-01-12T22:12:49.646Z,2.8
2019-01-12T22:14:49.620Z,3.1
2019-01-12T22:16:49.894Z,3.1
2019-01-12T22:18:49.885Z,2.8
2019-01-12T22:20:49.884Z,3.3
2019-01-12T22:22:49.887Z,3.3
2019-01-12T22:24:49.894Z,2.7
2019-01-12T22:26:50.030Z,2.9
2019-01-12T22:28:50.022Z,2.7
2019-01-12T22:30:49.963Z,2.7
2019-01-12T22:32:49.938Z,3.3
2019-01-12T22:34:50.212Z,3.3
2019-01-12T22:36:49.445Z,2.9
2019-01-12T22:38:50.418Z,3.1
2019-01-12T22:40:49.460Z,3.3
2019-01-12T22:42:49.540Z,3.1
2019-01-12T22:44:49.528Z,3.1
2019-01-12T22:46:49.738Z,3.2
2019-01-12T22:48:49.775Z,3.1
2019-01-12T22:50:49.756Z,3.1
2019-01-12T22:52:49.750Z,3.4
2019-01-12T22:54:49.730Z,3.4
2019-01-12T22:56:49.972Z,3.4
2019-01-12T22:58:49.991Z,3.5
2019-01-12T23:00:50.016Z,3.5
2019-01-12T23:02:50.067Z,3.6
2019-01-12T23:04:50.397Z,3.6
2019-01-12T23:06:49.602Z,3.4
2019-01-12T23:08:49.571Z,3.6
2019-01-12T23:10:49.601Z,3.6
2019-01-12T23:12:49.735Z,3.8
2019-01-12T23:14:49.714Z,3.9
2019-01-12T23:16:49.949Z,4.1
2019-01-12T23:18:49.905Z,4.1
2019-01-12T23:20:49.898Z,4.3
2019-01-12T23:22:49.950Z,4.5
2019-01-12T23:24:49.909Z,4.5
2019-01-12T23:26:50.075Z,4.4
2019-01-12T23:28:50.063Z,4.2
2019-01-12T23:30:50.032Z,4.6
2019-01-12T23:32:50.077Z,4.6
2019-01-12T23:34:49.441Z,4.6
2019-01-12T23:36:49.857Z,5.0
2019-01-12T23:38:49.819Z,5.5
2019-01-12T23:40:49.890Z,5.5
2019-01-12T23:42:49.810Z,5.6
2019-01-12T23:44:49.811Z,5.9
2019-01-12T23:46:49.824Z,5.8
2019-01-12T23:48:49.820Z,5.8
2019-01-12T23:50:49.848Z,5.6
2019-01-12T23:52:49.791Z,5.6
2019-01-12T23:54:49.749Z,5.6
2019-01-12T23:56:49.845Z,5.8
2019-01-12T23:58:49.851Z,5.8
